sensor_id;sensor_type;location;lat;lon;timestamp;P1;durP1;ratioP1;P2;durP2;ratioP2
10440;SDS011;5268;49.346;9.522;2023-07-31T03:10:15;3.60;;;1.75;;
10440;SDS011;5268;49.346;9.522;2023-07-31T03:15:17;3.63;;;1.83;;
10440;SDS011;5268;49.346;9.522;2023-07-31T03:20:19;6.95;;;2.40;;
10440;SDS011;5268;49.346;9.522;2023-07-31T03:25:22;3.05;;;1.85;;
10440;SDS011;5268;49.346;9.522;2023-07-31T03:30:24;3.95;;;1.90;;
10440;SDS011;5268;49.346;9.522;2023-07-31T03:35:26;2.80;;;1.80;;
10440;SDS011;5268;49.346;9.522;2023-07-31T03:40:30;5.40;;;2.17;;
10440;SDS011;5268;49.346;9.522;2023-07-31T03:45:32;4.72;;;1.90;;
10440;SDS011;5268;49.346;9.522;2023-07-31T03:50:34;4.82;;;2.13;;
10440;SDS011;5268;49.346;9.522;2023-07-31T03:55:37;4.57;;;2.20;;
10440;SDS011;5268;49.346;9.522;2023-07-31T04:00:39;4.72;;;1.90;;
10440;SDS011;5268;49.346;9.522;2023-07-31T04:05:41;3.72;;;2.13;;
10440;SDS011;5268;49.346;9.522;2023-07-31T04:10:45;3.28;;;1.92;;
10440;SDS011;5268;49.346;9.522;2023-07-31T04:15:50;3.42;;;2.13;;
10440;SDS011;5268;49.346;9.522;2023-07-31T04:20:52;3.67;;;1.90;;
10440;SDS011;5268;49.346;9.522;2023-07-31T04:25:55;3.42;;;1.88;;
10440;SDS011;5268;49.346;9.522;2023-07-31T04:30:57;3.92;;;2.20;;
10440;SDS011;5268;49.346;9.522;2023-07-31T04:35:59;4.15;;;2.13;;
10440;SDS011;5268;49.346;9.522;2023-07-31T04:41:03;4.78;;;1.90;;
10440;SDS011;5268;49.346;9.522;2023-07-31T04:46:05;4.72;;;2.00;;
10440;SDS011;5268;49.346;9.522;2023-07-31T04:51:07;3.78;;;2.00;;
10440;SDS011;5268;49.346;9.522;2023-07-31T04:56:11;6.38;;;1.92;;
10440;SDS011;5268;49.346;9.522;2023-07-31T05:01:14;5.80;;;1.88;;
10440;SDS011;5268;49.346;9.522;2023-07-31T05:06:16;4.13;;;1.80;;
10440;SDS011;5268;49.346;9.522;2023-07-31T05:11:19;4.65;;;2.00;;
10440;SDS011;5268;49.346;9.522;2023-07-31T05:16:21;4.82;;;1.90;;
10440;SDS011;5268;49.346;9.522;2023-07-31T05:21:23;4.47;;;2.22;;
10440;SDS011;5268;49.346;9.522;2023-07-31T05:26:27;6.05;;;2.25;;
10440;SDS011;5268;49.346;9.522;2023-07-31T05:31:29;4.18;;;2.05;;
10440;SDS011;5268;49.346;9.522;2023-07-31T05:36:32;7.00;;;2.03;;
10440;SDS011;5268;49.346;9.522;2023-07-31T05:41:36;10.50;;;2.05;;
10440;SDS011;5268;49.346;9.522;2023-07-31T05:46:38;4.43;;;1.70;;
10440;SDS011;5268;49.346;9.522;2023-07-31T05:51:40;3.95;;;1.92;;
10440;SDS011;5268;49.346;9.522;2023-07-31T05:56:43;2.95;;;1.90;;
10440;SDS011;5268;49.346;9.522;2023-07-31T06:01:45;3.70;;;1.90;;
10440;SDS011;5268;49.346;9.522;2023-07-31T06:06:47;4.88;;;1.90;;
10440;SDS011;5268;49.346;9.522;2023-07-31T06:11:50;3.55;;;2.20;;
10440;SDS011;5268;49.346;9.522;2023-07-31T06:16:52;4.72;;;2.22;;
10440;SDS011;5268;49.346;9.522;2023-07-31T06:21:54;3.55;;;2.00;;
10440;SDS011;5268;49.346;9.522;2023-07-31T06:26:58;3.58;;;2.13;;
10440;SDS011;5268;49.346;9.522;2023-07-31T06:32:00;5.72;;;2.10;;
10440;SDS011;5268;49.346;9.522;2023-07-31T06:37:02;5.82;;;2.00;;
10440;SDS011;5268;49.346;9.522;2023-07-31T06:42:07;4.80;;;2.03;;
10440;SDS011;5268;49.346;9.522;2023-07-31T06:47:09;3.00;;;2.00;;
10440;SDS011;5268;49.346;9.522;2023-07-31T06:52:11;4.78;;;2.20;;
10440;SDS011;5268;49.346;9.522;2023-07-31T06:57:15;5.25;;;2.05;;
10440;SDS011;5268;49.346;9.522;2023-07-31T07:02:19;3.90;;;1.80;;
10440;SDS011;5268;49.346;9.522;2023-07-31T07:07:22;4.88;;;2.25;;
10440;SDS011;5268;49.346;9.522;2023-07-31T07:12:25;5.70;;;2.00;;
10440;SDS011;5268;49.346;9.522;2023-07-31T07:17:28;3.40;;;2.20;;
10440;SDS011;5268;49.346;9.522;2023-07-31T07:22:31;3.97;;;2.00;;
10440;SDS011;5268;49.346;9.522;2023-07-31T07:27:35;4.50;;;2.20;;
10440;SDS011;5268;49.346;9.522;2023-07-31T07:32:37;4.80;;;2.17;;
10440;SDS011;5268;49.346;9.522;2023-07-31T07:37:39;5.43;;;2.17;;
10440;SDS011;5268;49.346;9.522;2023-07-31T07:42:43;4.50;;;2.20;;
10440;SDS011;5268;49.346;9.522;2023-07-31T07:47:44;4.78;;;2.40;;
10440;SDS011;5268;49.346;9.522;2023-07-31T07:52:46;3.80;;;2.10;;
10440;SDS011;5268;49.346;9.522;2023-07-31T07:57:50;4.20;;;2.10;;
10440;SDS011;5268;49.346;9.522;2023-07-31T08:02:52;3.53;;;2.13;;
10440;SDS011;5268;49.346;9.522;2023-07-31T08:07:54;4.45;;;2.40;;
10440;SDS011;5268;49.346;9.522;2023-07-31T08:12:57;5.50;;;2.30;;
10440;SDS011;5268;49.346;9.522;2023-07-31T08:17:59;4.13;;;2.15;;
10440;SDS011;5268;49.346;9.522;2023-07-31T08:23:01;5.05;;;2.55;;
10440;SDS011;5268;49.346;9.522;2023-07-31T08:28:05;4.13;;;2.20;;
10440;SDS011;5268;49.346;9.522;2023-07-31T08:33:07;4.50;;;2.35;;
10440;SDS011;5268;49.346;9.522;2023-07-31T08:38:09;6.07;;;2.50;;
10440;SDS011;5268;49.346;9.522;2023-07-31T08:43:13;4.75;;;2.15;;
10440;SDS011;5268;49.346;9.522;2023-07-31T08:48:15;5.45;;;2.83;;
10440;SDS011;5268;49.346;9.522;2023-07-31T08:53:19;6.47;;;2.28;;
10440;SDS011;5268;49.346;9.522;2023-07-31T08:58:22;4.95;;;2.55;;
10440;SDS011;5268;49.346;9.522;2023-07-31T09:03:25;6.93;;;2.20;;
10440;SDS011;5268;49.346;9.522;2023-07-31T09:08:28;5.13;;;2.63;;
10440;SDS011;5268;49.346;9.522;2023-07-31T09:13:33;5.28;;;2.60;;
10440;SDS011;5268;49.346;9.522;2023-07-31T09:18:41;4.78;;;2.45;;
10440;SDS011;5268;49.346;9.522;2023-07-31T09:23:54;4.97;;;2.60;;
10440;SDS011;5268;49.346;9.522;2023-07-31T09:28:58;7.45;;;2.40;;
10440;SDS011;5268;49.346;9.522;2023-07-31T09:34:00;5.28;;;2.60;;
10440;SDS011;5268;49.346;9.522;2023-07-31T09:39:02;5.50;;;2.30;;
10440;SDS011;5268;49.346;9.522;2023-07-31T09:44:06;6.82;;;2.40;;
10440;SDS011;5268;49.346;9.522;2023-07-31T09:49:08;4.18;;;2.40;;
10440;SDS011;5268;49.346;9.522;2023-07-31T09:54:10;5.13;;;2.42;;
10440;SDS011;5268;49.346;9.522;2023-07-31T09:59:16;5.43;;;2.45;;
10440;SDS011;5268;49.346;9.522;2023-07-31T10:04:18;6.25;;;2.70;;
10440;SDS011;5268;49.346;9.522;2023-07-31T10:09:28;4.18;;;2.55;;
10440;SDS011;5268;49.346;9.522;2023-07-31T10:14:34;8.43;;;2.80;;
10440;SDS011;5268;49.346;9.522;2023-07-31T10:19:36;4.95;;;2.72;;
10440;SDS011;5268;49.346;9.522;2023-07-31T10:24:38;4.43;;;2.45;;
10440;SDS011;5268;49.346;9.522;2023-07-31T10:29:43;6.78;;;2.80;;
10440;SDS011;5268;49.346;9.522;2023-07-31T10:34:48;4.30;;;2.53;;
10440;SDS011;5268;49.346;9.522;2023-07-31T10:39:58;4.25;;;2.60;;
10440;SDS011;5268;49.346;9.522;2023-07-31T10:45:03;6.25;;;2.92;;
10440;SDS011;5268;49.346;9.522;2023-07-31T10:50:16;5.30;;;2.90;;
10440;SDS011;5268;49.346;9.522;2023-07-31T10:55:30;4.93;;;2.70;;
10440;SDS011;5268;49.346;9.522;2023-07-31T11:00:36;5.75;;;2.83;;
10440;SDS011;5268;49.346;9.522;2023-07-31T11:05:42;6.13;;;3.03;;
10440;SDS011;5268;49.346;9.522;2023-07-31T11:10:46;5.35;;;2.53;;
10440;SDS011;5268;49.346;9.522;2023-07-31T11:15:50;4.72;;;2.70;;
10440;SDS011;5268;49.346;9.522;2023-07-31T11:20:52;4.88;;;2.63;;
10440;SDS011;5268;49.346;9.522;2023-07-31T11:25:57;4.80;;;2.65;;
10440;SDS011;5268;49.346;9.522;2023-07-31T11:31:02;5.60;;;2.90;;
10440;SDS011;5268;49.346;9.522;2023-07-31T11:36:04;4.35;;;2.58;;
10440;SDS011;5268;49.346;9.522;2023-07-31T11:41:06;6.00;;;3.05;;
10440;SDS011;5268;49.346;9.522;2023-07-31T11:46:10;6.43;;;2.80;;
10440;SDS011;5268;49.346;9.522;2023-07-31T11:51:12;3.97;;;2.67;;
10440;SDS011;5268;49.346;9.522;2023-07-31T11:56:16;5.80;;;2.80;;
10440;SDS011;5268;49.346;9.522;2023-07-31T12:01:21;7.03;;;3.03;;
10440;SDS011;5268;49.346;9.522;2023-07-31T12:06:32;6.35;;;2.88;;
10440;SDS011;5268;49.346;9.522;2023-07-31T12:11:42;5.57;;;3.05;;
10440;SDS011;5268;49.346;9.522;2023-07-31T12:16:46;5.53;;;3.03;;
10440;SDS011;5268;49.346;9.522;2023-07-31T12:21:48;6.38;;;2.95;;
10440;SDS011;5268;49.346;9.522;2023-07-31T12:26:51;6.07;;;2.88;;
10440;SDS011;5268;49.346;9.522;2023-07-31T12:31:54;5.45;;;2.78;;
10440;SDS011;5268;49.346;9.522;2023-07-31T12:36:56;6.35;;;2.60;;
10440;SDS011;5268;49.346;9.522;2023-07-31T12:41:58;4.40;;;2.70;;
10440;SDS011;5268;49.346;9.522;2023-07-31T12:47:02;5.43;;;2.70;;
10440;SDS011;5268;49.346;9.522;2023-07-31T12:52:04;4.60;;;2.50;;
10440;SDS011;5268;49.346;9.522;2023-07-31T12:57:07;5.80;;;2.70;;
10440;SDS011;5268;49.346;9.522;2023-07-31T13:02:10;4.65;;;2.88;;
10440;SDS011;5268;49.346;9.522;2023-07-31T13:07:12;5.30;;;2.80;;
10440;SDS011;5268;49.346;9.522;2023-07-31T13:12:14;5.40;;;3.28;;
10440;SDS011;5268;49.346;9.522;2023-07-31T13:17:18;4.88;;;2.67;;
10440;SDS011;5268;49.346;9.522;2023-07-31T13:22:20;7.20;;;3.05;;
10440;SDS011;5268;49.346;9.522;2023-07-31T13:27:22;7.53;;;3.20;;
10440;SDS011;5268;49.346;9.522;2023-07-31T13:32:26;5.13;;;2.75;;
10440;SDS011;5268;49.346;9.522;2023-07-31T13:37:28;4.50;;;2.63;;
10440;SDS011;5268;49.346;9.522;2023-07-31T13:42:30;5.15;;;3.00;;
10440;SDS011;5268;49.346;9.522;2023-07-31T13:47:33;6.97;;;2.88;;
10440;SDS011;5268;49.346;9.522;2023-07-31T13:52:37;6.85;;;2.78;;
10440;SDS011;5268;49.346;9.522;2023-07-31T13:57:39;3.60;;;2.30;;
10440;SDS011;5268;49.346;9.522;2023-07-31T14:02:42;4.50;;;2.80;;
10440;SDS011;5268;49.346;9.522;2023-07-31T14:07:44;5.53;;;2.80;;
10440;SDS011;5268;49.346;9.522;2023-07-31T14:12:46;4.15;;;2.60;;
10440;SDS011;5268;49.346;9.522;2023-07-31T14:17:49;5.32;;;2.80;;
10440;SDS011;5268;49.346;9.522;2023-07-31T14:22:51;4.32;;;2.38;;
10440;SDS011;5268;49.346;9.522;2023-07-31T14:27:53;5.68;;;2.90;;
10440;SDS011;5268;49.346;9.522;2023-07-31T14:32:57;5.13;;;2.60;;
10440;SDS011;5268;49.346;9.522;2023-07-31T14:38:01;3.70;;;2.60;;
10440;SDS011;5268;49.346;9.522;2023-07-31T14:43:04;4.60;;;2.60;;
10440;SDS011;5268;49.346;9.522;2023-07-31T14:48:07;4.43;;;2.70;;
10440;SDS011;5268;49.346;9.522;2023-07-31T14:53:09;5.75;;;3.00;;
10440;SDS011;5268;49.346;9.522;2023-07-31T14:58:12;5.35;;;2.50;;
10440;SDS011;5268;49.346;9.522;2023-07-31T15:03:16;4.85;;;2.50;;
10440;SDS011;5268;49.346;9.522;2023-07-31T15:08:18;6.07;;;2.50;;
10440;SDS011;5268;49.346;9.522;2023-07-31T15:13:20;4.03;;;2.40;;
10440;SDS011;5268;49.346;9.522;2023-07-31T15:18:23;5.13;;;2.55;;
10440;SDS011;5268;49.346;9.522;2023-07-31T15:23:25;8.65;;;3.22;;
10440;SDS011;5268;49.346;9.522;2023-07-31T15:28:27;4.60;;;2.55;;
10440;SDS011;5268;49.346;9.522;2023-07-31T15:33:31;4.15;;;2.40;;
10440;SDS011;5268;49.346;9.522;2023-07-31T15:38:33;5.13;;;2.22;;
10440;SDS011;5268;49.346;9.522;2023-07-31T15:43:35;4.15;;;2.47;;
10440;SDS011;5268;49.346;9.522;2023-07-31T15:48:39;4.50;;;2.33;;
10440;SDS011;5268;49.346;9.522;2023-07-31T15:53:41;5.35;;;2.65;;
10440;SDS011;5268;49.346;9.522;2023-07-31T15:58:43;3.58;;;2.28;;
10440;SDS011;5268;49.346;9.522;2023-07-31T16:03:46;5.13;;;2.55;;
10440;SDS011;5268;49.346;9.522;2023-07-31T16:08:49;4.40;;;2.55;;
10440;SDS011;5268;49.346;9.522;2023-07-31T16:13:51;5.70;;;2.72;;
10440;SDS011;5268;49.346;9.522;2023-07-31T16:18:55;4.70;;;2.70;;
10440;SDS011;5268;49.346;9.522;2023-07-31T16:23:56;7.00;;;2.60;;
10440;SDS011;5268;49.346;9.522;2023-07-31T16:28:58;4.07;;;2.72;;
10440;SDS011;5268;49.346;9.522;2023-07-31T16:34:02;5.05;;;2.60;;
10440;SDS011;5268;49.346;9.522;2023-07-31T16:39:04;5.22;;;2.53;;
10440;SDS011;5268;49.346;9.522;2023-07-31T16:44:06;4.63;;;2.80;;
10440;SDS011;5268;49.346;9.522;2023-07-31T16:49:09;3.60;;;2.55;;
10440;SDS011;5268;49.346;9.522;2023-07-31T16:54:11;5.97;;;2.42;;
10440;SDS011;5268;49.346;9.522;2023-07-31T16:59:14;6.68;;;2.80;;
10440;SDS011;5268;49.346;9.522;2023-07-31T17:04:17;5.22;;;2.67;;
10440;SDS011;5268;49.346;9.522;2023-07-31T17:09:19;4.25;;;2.67;;
10440;SDS011;5268;49.346;9.522;2023-07-31T17:14:21;4.88;;;2.60;;
10440;SDS011;5268;49.346;9.522;2023-07-31T17:19:24;7.20;;;2.80;;
10440;SDS011;5268;49.346;9.522;2023-07-31T17:24:26;5.93;;;2.95;;
10440;SDS011;5268;49.346;9.522;2023-07-31T17:29:28;4.95;;;2.83;;
10440;SDS011;5268;49.346;9.522;2023-07-31T17:34:33;5.43;;;2.63;;
10440;SDS011;5268;49.346;9.522;2023-07-31T17:39:35;4.93;;;2.42;;
10440;SDS011;5268;49.346;9.522;2023-07-31T17:44:37;5.85;;;2.65;;
10440;SDS011;5268;49.346;9.522;2023-07-31T17:49:40;3.92;;;2.42;;
10440;SDS011;5268;49.346;9.522;2023-07-31T17:54:42;4.95;;;2.45;;
10440;SDS011;5268;49.346;9.522;2023-07-31T17:59:44;3.60;;;2.40;;
10440;SDS011;5268;49.346;9.522;2023-07-31T18:04:48;6.80;;;2.80;;
10440;SDS011;5268;49.346;9.522;2023-07-31T18:09:50;6.20;;;2.92;;
10440;SDS011;5268;49.346;9.522;2023-07-31T18:14:52;6.30;;;3.10;;
10440;SDS011;5268;49.346;9.522;2023-07-31T18:19:55;4.30;;;3.13;;
10440;SDS011;5268;49.346;9.522;2023-07-31T18:24:57;6.30;;;3.00;;
10440;SDS011;5268;49.346;9.522;2023-07-31T18:29:59;5.18;;;3.28;;
10440;SDS011;5268;49.346;9.522;2023-07-31T18:35:03;6.03;;;3.08;;
10440;SDS011;5268;49.346;9.522;2023-07-31T18:40:06;4.35;;;2.97;;
10440;SDS011;5268;49.346;9.522;2023-07-31T18:45:09;6.10;;;3.30;;
10440;SDS011;5268;49.346;9.522;2023-07-31T18:50:12;5.72;;;2.70;;
10440;SDS011;5268;49.346;9.522;2023-07-31T18:55:14;4.97;;;2.90;;
10440;SDS011;5268;49.346;9.522;2023-07-31T19:00:16;8.02;;;3.40;;
10440;SDS011;5268;49.346;9.522;2023-07-31T19:05:20;6.47;;;3.38;;
10440;SDS011;5268;49.346;9.522;2023-07-31T19:10:22;7.55;;;3.63;;
10440;SDS011;5268;49.346;9.522;2023-07-31T19:15:24;6.55;;;3.60;;
10440;SDS011;5268;49.346;9.522;2023-07-31T19:20:28;5.50;;;3.22;;
10440;SDS011;5268;49.346;9.522;2023-07-31T19:25:30;4.60;;;3.30;;
10440;SDS011;5268;49.346;9.522;2023-07-31T19:30:32;7.43;;;3.60;;
10440;SDS011;5268;49.346;9.522;2023-07-31T19:35:35;5.75;;;3.40;;
10440;SDS011;5268;49.346;9.522;2023-07-31T19:40:37;5.07;;;3.38;;
10440;SDS011;5268;49.346;9.522;2023-07-31T19:45:39;4.07;;;3.50;;
10440;SDS011;5268;49.346;9.522;2023-07-31T19:50:42;4.05;;;3.17;;
10440;SDS011;5268;49.346;9.522;2023-07-31T19:55:45;8.05;;;4.00;;
10440;SDS011;5268;49.346;9.522;2023-07-31T20:00:48;7.10;;;3.80;;
10440;SDS011;5268;49.346;9.522;2023-07-31T20:05:52;5.97;;;3.65;;
10440;SDS011;5268;49.346;9.522;2023-07-31T20:10:54;5.22;;;3.53;;
10440;SDS011;5268;49.346;9.522;2023-07-31T20:15:59;7.82;;;4.10;;
10440;SDS011;5268;49.346;9.522;2023-07-31T20:21:03;5.88;;;3.80;;
10440;SDS011;5268;49.346;9.522;2023-07-31T20:26:05;6.72;;;4.00;;
10440;SDS011;5268;49.346;9.522;2023-07-31T20:31:07;7.28;;;3.85;;
10440;SDS011;5268;49.346;9.522;2023-07-31T20:36:13;5.88;;;3.80;;
10440;SDS011;5268;49.346;9.522;2023-07-31T20:41:15;6.05;;;3.65;;
10440;SDS011;5268;49.346;9.522;2023-07-31T20:46:17;6.60;;;3.67;;
10440;SDS011;5268;49.346;9.522;2023-07-31T20:51:20;6.22;;;3.90;;
10440;SDS011;5268;49.346;9.522;2023-07-31T20:56:23;8.50;;;3.72;;
10440;SDS011;5268;49.346;9.522;2023-07-31T21:01:24;7.18;;;4.10;;
10440;SDS011;5268;49.346;9.522;2023-07-31T21:06:28;7.75;;;3.78;;
10440;SDS011;5268;49.346;9.522;2023-07-31T21:11:30;5.50;;;3.97;;
10440;SDS011;5268;49.346;9.522;2023-07-31T21:16:33;6.97;;;3.92;;
10440;SDS011;5268;49.346;9.522;2023-07-31T21:21:37;5.65;;;3.85;;
10440;SDS011;5268;49.346;9.522;2023-07-31T21:26:39;6.70;;;3.90;;
10440;SDS011;5268;49.346;9.522;2023-07-31T21:31:41;6.32;;;3.72;;
10440;SDS011;5268;49.346;9.522;2023-07-31T21:36:45;5.70;;;3.63;;
10440;SDS011;5268;49.346;9.522;2023-07-31T21:41:47;5.93;;;3.90;;
10440;SDS011;5268;49.346;9.522;2023-07-31T21:46:49;7.22;;;3.75;;
10440;SDS011;5268;49.346;9.522;2023-07-31T21:51:52;6.85;;;3.90;;
